sensor_id;sensor_type;location;lat;lon;timestamp;pressure;altitude;pressure_sealevel;temperature;humidity
14790;BME280;7486;51.010;10.366;2023-11-18T00:02:25;99037.25;;;0.12;75.17
14790;BME280;7486;51.010;10.366;2023-11-18T00:05:12;99079.47;;;0.38;75.60
14790;BME280;7486;51.010;10.366;2023-11-18T00:07:58;99071.06;;;0.34;75.17
14790;BME280;7486;51.010;10.366;2023-11-18T00:10:45;98870.25;;;-0.93;75.30
14790;BME280;7486;51.010;10.366;2023-11-18T00:13:31;99046.72;;;0.13;75.38
14790;BME280;7486;51.010;10.366;2023-11-18T00:16:16;99081.88;;;0.41;75.48
14790;BME280;7486;51.010;10.366;2023-11-18T00:19:02;99097.75;;;0.27;75.82
14790;BME280;7486;51.010;10.366;2023-11-18T00:21:48;98942.81;;;-0.90;76.11
14790;BME280;7486;51.010;10.366;2023-11-18T00:24:37;99053.34;;;-0.27;77.29
14790;BME280;7486;51.010;10.366;2023-11-18T00:27:22;99076.09;;;-0.07;78.33
14790;BME280;7486;51.010;10.366;2023-11-18T00:30:09;99044.72;;;-0.28;77.84
14790;BME280;7486;51.010;10.366;2023-11-18T00:36:21;99017.47;;;-0.57;77.36
14790;BME280;7486;51.010;10.366;2023-11-18T00:39:06;98986.81;;;-0.76;77.88
14790;BME280;7486;51.010;10.366;2023-11-18T00:41:52;98959.97;;;-0.76;77.58
14790;BME280;7486;51.010;10.366;2023-11-18T00:44:39;99079.97;;;-0.13;77.34
14790;BME280;7486;51.010;10.366;2023-11-18T01:17:26;99028.31;;;-1.09;80.29
14790;BME280;7486;51.010;10.366;2023-11-18T01:20:12;99057.47;;;-0.93;81.43
14790;BME280;7486;51.010;10.366;2023-11-18T01:22:59;99017.97;;;-0.98;81.12
14790;BME280;7486;51.010;10.366;2023-11-18T01:25:45;99115.59;;;-0.13;79.73
14790;BME280;7486;51.010;10.366;2023-11-18T01:28:34;99111.00;;;-0.10;78.40
14790;BME280;7486;51.010;10.366;2023-11-18T01:31:20;99061.97;;;-0.49;78.69
14790;BME280;7486;51.010;10.366;2023-11-18T01:34:07;99063.91;;;-1.10;79.75
14790;BME280;7486;51.010;10.366;2023-11-18T01:36:53;99073.50;;;-0.99;82.21
14790;BME280;7486;51.010;10.366;2023-11-18T01:39:39;99128.50;;;-0.23;80.97
14790;BME280;7486;51.010;10.366;2023-11-18T01:46:03;99125.81;;;0.12;79.35
14790;BME280;7486;51.010;10.366;2023-11-18T01:48:49;99026.59;;;-0.41;78.07
14790;BME280;7486;51.010;10.366;2023-11-18T01:51:35;98986.13;;;-0.56;77.65
14790;BME280;7486;51.010;10.366;2023-11-18T01:54:21;99110.19;;;0.23;76.86
14790;BME280;7486;51.010;10.366;2023-11-18T01:57:09;99052.16;;;-0.23;76.32
14790;BME280;7486;51.010;10.366;2023-11-18T01:59:55;99062.00;;;-0.16;75.61
14790;BME280;7486;51.010;10.366;2023-11-18T02:02:42;99009.19;;;-0.51;75.70
14790;BME280;7486;51.010;10.366;2023-11-18T02:05:28;99064.47;;;-0.25;74.99
14790;BME280;7486;51.010;10.366;2023-11-18T02:08:15;99111.59;;;-0.06;75.24
14790;BME280;7486;51.010;10.366;2023-11-18T02:14:13;99088.38;;;-0.20;75.11
14790;BME280;7486;51.010;10.366;2023-11-18T02:17:02;99150.88;;;-0.09;75.12
14790;BME280;7486;51.010;10.366;2023-11-18T02:19:50;99065.19;;;-0.80;76.21
14790;BME280;7486;51.010;10.366;2023-11-18T02:22:36;99155.25;;;-0.21;76.67
14790;BME280;7486;51.010;10.366;2023-11-18T02:25:24;99128.97;;;-0.29;76.69
14790;BME280;7486;51.010;10.366;2023-11-18T02:28:09;99141.19;;;-0.18;76.51
14790;BME280;7486;51.010;10.366;2023-11-18T02:31:03;99094.38;;;-0.42;75.91
14790;BME280;7486;51.010;10.366;2023-11-18T02:34:00;99129.88;;;-0.41;74.73
14790;BME280;7486;51.010;10.366;2023-11-18T02:36:48;99068.94;;;-0.84;75.40
14790;BME280;7486;51.010;10.366;2023-11-18T02:39:45;99127.25;;;-0.41;75.92
14790;BME280;7486;51.010;10.366;2023-11-18T02:42:36;99038.22;;;-0.91;75.49
14790;BME280;7486;51.010;10.366;2023-11-18T02:45:23;99118.16;;;-0.47;75.74
14790;BME280;7486;51.010;10.366;2023-11-18T02:48:09;99100.59;;;-0.67;74.86
14790;BME280;7486;51.010;10.366;2023-11-18T02:50:55;99068.53;;;-1.02;76.18
14790;BME280;7486;51.010;10.366;2023-11-18T02:53:41;99134.25;;;-0.76;75.67
14790;BME280;7486;51.010;10.366;2023-11-18T02:56:27;99078.75;;;-0.88;75.88
14790;BME280;7486;51.010;10.366;2023-11-18T02:59:13;99060.31;;;-0.96;76.12
14790;BME280;7486;51.010;10.366;2023-11-18T03:01:58;99039.47;;;-1.07;75.89
14790;BME280;7486;51.010;10.366;2023-11-18T03:04:44;99063.59;;;-0.94;75.19
14790;BME280;7486;51.010;10.366;2023-11-18T03:07:30;99150.44;;;-0.49;75.62
14790;BME280;7486;51.010;10.366;2023-11-18T03:10:16;99132.75;;;-0.68;74.99
14790;BME280;7486;51.010;10.366;2023-11-18T03:13:02;99132.50;;;-0.65;75.27
14790;BME280;7486;51.010;10.366;2023-11-18T03:15:48;99044.81;;;-1.21;74.88
14790;BME280;7486;51.010;10.366;2023-11-18T03:18:33;99110.94;;;-0.78;75.24
14790;BME280;7486;51.010;10.366;2023-11-18T03:21:19;99011.75;;;-1.43;75.12
14790;BME280;7486;51.010;10.366;2023-11-18T03:24:05;99023.50;;;-1.37;75.57
14790;BME280;7486;51.010;10.366;2023-11-18T03:26:51;99146.25;;;-0.63;75.46
14790;BME280;7486;51.010;10.366;2023-11-18T03:29:36;99091.00;;;-1.01;75.07
14790;BME280;7486;51.010;10.366;2023-11-18T03:32:22;98999.53;;;-1.54;74.76
14790;BME280;7486;51.010;10.366;2023-11-18T03:35:09;99044.59;;;-1.42;74.99
14790;BME280;7486;51.010;10.366;2023-11-18T03:37:55;99047.97;;;-1.29;75.05
14790;BME280;7486;51.010;10.366;2023-11-18T03:40:41;99102.47;;;-1.04;75.15
14790;BME280;7486;51.010;10.366;2023-11-18T03:43:27;99044.84;;;-1.45;74.79
14790;BME280;7486;51.010;10.366;2023-11-18T03:46:12;99036.97;;;-1.56;75.28
14790;BME280;7486;51.010;10.366;2023-11-18T03:48:59;99160.91;;;-0.85;75.18
14790;BME280;7486;51.010;10.366;2023-11-18T03:51:45;99053.00;;;-1.38;75.48
14790;BME280;7486;51.010;10.366;2023-11-18T03:54:31;99141.78;;;-0.84;75.77
14790;BME280;7486;51.010;10.366;2023-11-18T03:57:16;99068.66;;;-1.27;75.38
14790;BME280;7486;51.010;10.366;2023-11-18T04:00:02;99152.09;;;-0.83;76.06
14790;BME280;7486;51.010;10.366;2023-11-18T04:02:54;99059.97;;;-1.39;75.57
14790;BME280;7486;51.010;10.366;2023-11-18T04:05:39;99005.25;;;-1.72;75.69
14790;BME280;7486;51.010;10.366;2023-11-18T04:08:25;99093.00;;;-1.28;74.87
14790;BME280;7486;51.010;10.366;2023-11-18T04:11:10;99108.38;;;-1.25;75.02
14790;BME280;7486;51.010;10.366;2023-11-18T04:13:56;99148.72;;;-0.96;76.10
14790;BME280;7486;51.010;10.366;2023-11-18T04:16:41;98927.09;;;-2.29;75.69
14790;BME280;7486;51.010;10.366;2023-11-18T04:19:27;99053.16;;;-1.53;75.55
14790;BME280;7486;51.010;10.366;2023-11-18T04:22:13;99088.25;;;-1.34;75.65
14790;BME280;7486;51.010;10.366;2023-11-18T04:24:59;99142.22;;;-1.14;75.63
14790;BME280;7486;51.010;10.366;2023-11-18T04:27:45;99089.97;;;-1.59;76.12
14790;BME280;7486;51.010;10.366;2023-11-18T04:30:31;99028.81;;;-1.99;75.71
14790;BME280;7486;51.010;10.366;2023-11-18T04:33:17;99021.06;;;-2.37;77.21
14790;BME280;7486;51.010;10.366;2023-11-18T04:36:02;99104.19;;;-2.01;77.90
14790;BME280;7486;51.010;10.366;2023-11-18T04:38:48;99158.66;;;-1.63;79.06
14790;BME280;7486;51.010;10.366;2023-11-18T04:41:34;99106.84;;;-1.77;78.58
14790;BME280;7486;51.010;10.366;2023-11-18T04:44:20;99065.41;;;-1.91;78.21
14790;BME280;7486;51.010;10.366;2023-11-18T04:47:05;99107.25;;;-1.58;78.22
14790;BME280;7486;51.010;10.366;2023-11-18T04:49:51;99095.19;;;-1.59;77.95
14790;BME280;7486;51.010;10.366;2023-11-18T04:52:37;99005.16;;;-2.20;77.83
14790;BME280;7486;51.010;10.366;2023-11-18T04:55:22;99008.66;;;-2.08;77.55
14790;BME280;7486;51.010;10.366;2023-11-18T04:58:08;99105.03;;;-1.51;77.78
14790;BME280;7486;51.010;10.366;2023-11-18T05:00:53;99116.09;;;-1.36;77.40
14790;BME280;7486;51.010;10.366;2023-11-18T05:03:39;99131.75;;;-1.25;76.98
14790;BME280;7486;51.010;10.366;2023-11-18T05:06:25;99053.22;;;-1.78;76.80
14790;BME280;7486;51.010;10.366;2023-11-18T05:09:10;99101.88;;;-1.44;76.67
14790;BME280;7486;51.010;10.366;2023-11-18T05:11:57;99088.09;;;-1.57;76.77
14790;BME280;7486;51.010;10.366;2023-11-18T05:14:43;99110.28;;;-1.40;76.97
14790;BME280;7486;51.010;10.366;2023-11-18T05:17:28;99032.41;;;-1.89;76.20
14790;BME280;7486;51.010;10.366;2023-11-18T05:20:14;99088.09;;;-1.57;76.32
14790;BME280;7486;51.010;10.366;2023-11-18T05:23:00;98991.00;;;-2.16;76.46
14790;BME280;7486;51.010;10.366;2023-11-18T05:25:45;99117.16;;;-1.39;76.49
14790;BME280;7486;51.010;10.366;2023-11-18T05:28:31;99121.72;;;-1.43;76.69
14790;BME280;7486;51.010;10.366;2023-11-18T05:31:16;99042.66;;;-1.87;76.34
14790;BME280;7486;51.010;10.366;2023-11-18T05:34:02;99066.03;;;-1.75;76.45
14790;BME280;7486;51.010;10.366;2023-11-18T05:36:48;98986.06;;;-2.31;76.66
14790;BME280;7486;51.010;10.366;2023-11-18T05:39:33;98973.34;;;-2.47;76.75
14790;BME280;7486;51.010;10.366;2023-11-18T05:42:19;99032.13;;;-2.10;76.93
14790;BME280;7486;51.010;10.366;2023-11-18T05:45:05;99010.34;;;-2.20;76.86
14790;BME280;7486;51.010;10.366;2023-11-18T05:47:51;99072.69;;;-1.83;76.82
14790;BME280;7486;51.010;10.366;2023-11-18T05:50:37;99046.44;;;-2.04;76.71
14790;BME280;7486;51.010;10.366;2023-11-18T05:53:22;99114.50;;;-1.63;76.90
14790;BME280;7486;51.010;10.366;2023-11-18T05:56:15;99077.25;;;-1.87;76.83
14790;BME280;7486;51.010;10.366;2023-11-18T05:59:01;99109.31;;;-1.63;76.99
14790;BME280;7486;51.010;10.366;2023-11-18T06:01:47;99118.88;;;-1.63;77.10
14790;BME280;7486;51.010;10.366;2023-11-18T06:04:32;99068.03;;;-1.91;76.54
14790;BME280;7486;51.010;10.366;2023-11-18T06:07:18;99084.75;;;-1.82;76.79
14790;BME280;7486;51.010;10.366;2023-11-18T06:10:04;99022.50;;;-2.20;77.14
14790;BME280;7486;51.010;10.366;2023-11-18T06:12:49;99078.41;;;-1.91;76.24
14790;BME280;7486;51.010;10.366;2023-11-18T06:15:36;98992.31;;;-2.47;76.36
14790;BME280;7486;51.010;10.366;2023-11-18T06:18:21;99021.34;;;-2.29;76.80
14790;BME280;7486;51.010;10.366;2023-11-18T06:21:07;99095.44;;;-1.87;76.22
14790;BME280;7486;51.010;10.366;2023-11-18T06:23:52;99092.44;;;-1.94;76.57
14790;BME280;7486;51.010;10.366;2023-11-18T06:26:38;99121.81;;;-1.80;76.85
14790;BME280;7486;51.010;10.366;2023-11-18T06:29:24;99033.63;;;-2.43;76.27
14790;BME280;7486;51.010;10.366;2023-11-18T06:32:09;99124.22;;;-2.03;76.01
14790;BME280;7486;51.010;10.366;2023-11-18T06:34:55;99088.09;;;-2.43;76.33
14790;BME280;7486;51.010;10.366;2023-11-18T06:37:41;99091.09;;;-2.62;77.12
14790;BME280;7486;51.010;10.366;2023-11-18T06:40:27;99039.72;;;-2.95;77.15
14790;BME280;7486;51.010;10.366;2023-11-18T06:43:13;99073.84;;;-2.88;78.14
14790;BME280;7486;51.010;10.366;2023-11-18T06:45:58;99102.22;;;-2.87;78.87
14790;BME280;7486;51.010;10.366;2023-11-18T06:48:44;99048.88;;;-3.16;79.36
14790;BME280;7486;51.010;10.366;2023-11-18T06:51:31;99147.34;;;-2.50;80.22
14790;BME280;7486;51.010;10.366;2023-11-18T06:54:17;99141.34;;;-2.38;80.72
14790;BME280;7486;51.010;10.366;2023-11-18T06:57:03;99137.59;;;-2.21;80.28
14790;BME280;7486;51.010;10.366;2023-11-18T06:59:49;99135.84;;;-2.08;80.38
14790;BME280;7486;51.010;10.366;2023-11-18T07:02:34;99076.97;;;-2.46;80.16
14790;BME280;7486;51.010;10.366;2023-11-18T07:05:20;99119.66;;;-2.12;79.52
14790;BME280;7486;51.010;10.366;2023-11-18T07:08:06;99117.47;;;-2.05;79.71
14790;BME280;7486;51.010;10.366;2023-11-18T07:10:52;99092.16;;;-2.14;79.45
14790;BME280;7486;51.010;10.366;2023-11-18T07:13:38;99100.25;;;-2.06;79.40
14790;BME280;7486;51.010;10.366;2023-11-18T07:16:24;99107.41;;;-1.97;79.66
14790;BME280;7486;51.010;10.366;2023-11-18T07:19:10;99038.41;;;-2.37;79.66
14790;BME280;7486;51.010;10.366;2023-11-18T07:21:57;99113.13;;;-1.92;79.43
14790;BME280;7486;51.010;10.366;2023-11-18T07:24:43;99063.09;;;-2.19;79.17
14790;BME280;7486;51.010;10.366;2023-11-18T07:27:29;99053.44;;;-2.30;79.58
14790;BME280;7486;51.010;10.366;2023-11-18T07:30:16;99130.13;;;-1.75;80.19
14790;BME280;7486;51.010;10.366;2023-11-18T07:33:02;99117.69;;;-2.21;80.00
14790;BME280;7486;51.010;10.366;2023-11-18T07:35:48;99173.22;;;-1.73;81.39
14790;BME280;7486;51.010;10.366;2023-11-18T07:38:34;99175.38;;;-1.54;81.27
14790;BME280;7486;51.010;10.366;2023-11-18T07:41:20;99177.97;;;-1.42;81.78
14790;BME280;7486;51.010;10.366;2023-11-18T07:44:05;99099.50;;;-2.21;82.60
14790;BME280;7486;51.010;10.366;2023-11-18T07:46:51;99025.00;;;-2.44;82.75
14790;BME280;7486;51.010;10.366;2023-11-18T07:49:36;99035.06;;;-2.27;82.26
14790;BME280;7486;51.010;10.366;2023-11-18T07:52:22;99154.44;;;-1.76;82.31
14790;BME280;7486;51.010;10.366;2023-11-18T07:55:08;99126.81;;;-2.15;84.01
14790;BME280;7486;51.010;10.366;2023-11-18T07:57:54;99113.94;;;-2.29;86.00
14790;BME280;7486;51.010;10.366;2023-11-18T08:00:43;99058.41;;;-2.52;85.33
14790;BME280;7486;51.010;10.366;2023-11-18T08:03:31;99149.13;;;-1.75;85.05
14790;BME280;7486;51.010;10.366;2023-11-18T08:06:17;99063.03;;;-1.94;84.77
14790;BME280;7486;51.010;10.366;2023-11-18T08:09:03;99159.28;;;-1.10;83.66
14790;BME280;7486;51.010;10.366;2023-11-18T08:11:48;99028.41;;;-1.69;83.63
14790;BME280;7486;51.010;10.366;2023-11-18T08:14:35;99135.03;;;-1.11;83.09
14790;BME280;7486;51.010;10.366;2023-11-18T08:17:20;99186.13;;;-0.86;83.74
14790;BME280;7486;51.010;10.366;2023-11-18T08:20:07;99154.50;;;-1.16;84.07
14790;BME280;7486;51.010;10.366;2023-11-18T08:22:52;99176.97;;;-0.92;84.46
14790;BME280;7486;51.010;10.366;2023-11-18T08:25:38;99183.47;;;-0.97;84.89
14790;BME280;7486;51.010;10.366;2023-11-18T08:28:24;99194.47;;;-0.70;84.38
14790;BME280;7486;51.010;10.366;2023-11-18T08:31:13;99201.72;;;-0.62;83.50
14790;BME280;7486;51.010;10.366;2023-11-18T08:33:59;99166.03;;;-0.84;83.35
14790;BME280;7486;51.010;10.366;2023-11-18T08:36:44;99191.94;;;-0.82;83.50
14790;BME280;7486;51.010;10.366;2023-11-18T08:39:31;99164.78;;;-1.15;84.42
14790;BME280;7486;51.010;10.366;2023-11-18T08:42:16;98733.13;;;-3.97;84.98
14790;BME280;7486;51.010;10.366;2023-11-18T08:45:02;99185.69;;;-1.16;85.33
14790;BME280;7486;51.010;10.366;2023-11-18T08:47:50;99181.44;;;-1.17;85.58
14790;BME280;7486;51.010;10.366;2023-11-18T08:50:37;99128.59;;;-1.42;84.95
14790;BME280;7486;51.010;10.366;2023-11-18T08:53:22;99148.50;;;-1.66;86.01
14790;BME280;7486;51.010;10.366;2023-11-18T08:56:09;99158.44;;;-1.11;85.39
14790;BME280;7486;51.010;10.366;2023-11-18T08:58:57;99105.00;;;-1.15;83.73
14790;BME280;7486;51.010;10.366;2023-11-18T09:01:42;99099.19;;;-1.91;85.48
14790;BME280;7486;51.010;10.366;2023-11-18T09:04:29;99086.00;;;-2.26;88.76
14790;BME280;7486;51.010;10.366;2023-11-18T09:07:16;99154.19;;;-1.48;88.89
14790;BME280;7486;51.010;10.366;2023-11-18T09:10:01;99068.41;;;-1.72;87.43
14790;BME280;7486;51.010;10.366;2023-11-18T09:12:48;99050.06;;;-1.94;86.91
14790;BME280;7486;51.010;10.366;2023-11-18T09:15:33;99018.88;;;-2.30;88.37
14790;BME280;7486;51.010;10.366;2023-11-18T09:18:19;99067.22;;;-1.68;88.17
14790;BME280;7486;51.010;10.366;2023-11-18T09:21:05;99158.16;;;-1.19;88.54
14790;BME280;7486;51.010;10.366;2023-11-18T09:23:51;99119.53;;;-1.12;87.40
14790;BME280;7486;51.010;10.366;2023-11-18T09:26:36;99145.69;;;-0.55;84.94
14790;BME280;7486;51.010;10.366;2023-11-18T09:29:22;99147.50;;;-0.33;83.94
14790;BME280;7486;51.010;10.366;2023-11-18T09:32:07;99168.66;;;-0.14;83.13
14790;BME280;7486;51.010;10.366;2023-11-18T09:34:53;99111.81;;;-0.31;82.67
14790;BME280;7486;51.010;10.366;2023-11-18T09:37:39;99172.19;;;-0.15;82.72
14790;BME280;7486;51.010;10.366;2023-11-18T09:40:35;99138.13;;;0.10;83.26
14790;BME280;7486;51.010;10.366;2023-11-18T09:43:24;99162.75;;;0.73;81.77
14790;BME280;7486;51.010;10.366;2023-11-18T09:46:27;99155.13;;;1.03;80.87
14790;BME280;7486;51.010;10.366;2023-11-18T09:49:27;99145.03;;;1.09;79.86
14790;BME280;7486;51.010;10.366;2023-11-18T09:52:16;99134.25;;;1.03;80.54
14790;BME280;7486;51.010;10.366;2023-11-18T09:55:03;98986.59;;;0.48;79.79
14790;BME280;7486;51.010;10.366;2023-11-18T09:58:01;99086.88;;;1.19;78.81
14790;BME280;7486;51.010;10.366;2023-11-18T10:00:49;99098.16;;;1.19;78.42
14790;BME280;7486;51.010;10.366;2023-11-18T10:03:37;99098.66;;;0.59;78.65
14790;BME280;7486;51.010;10.366;2023-11-18T10:06:23;99084.28;;;0.87;78.51
14790;BME280;7486;51.010;10.366;2023-11-18T10:09:09;99074.56;;;0.89;77.70
14790;BME280;7486;51.010;10.366;2023-11-18T10:11:55;99113.94;;;0.63;79.09
14790;BME280;7486;51.010;10.366;2023-11-18T10:14:42;99127.97;;;1.05;77.96
14790;BME280;7486;51.010;10.366;2023-11-18T10:17:28;99048.66;;;0.97;77.09
14790;BME280;7486;51.010;10.366;2023-11-18T10:20:14;99091.59;;;1.45;77.33
14790;BME280;7486;51.010;10.366;2023-11-18T10:23:07;99139.56;;;1.86;76.21
14790;BME280;7486;51.010;10.366;2023-11-18T10:25:58;99136.44;;;1.92;75.96
14790;BME280;7486;51.010;10.366;2023-11-18T10:28:44;99015.38;;;1.10;76.94
14790;BME280;7486;51.010;10.366;2023-11-18T10:31:31;99117.44;;;1.90;76.95
14790;BME280;7486;51.010;10.366;2023-11-18T10:34:17;99096.47;;;2.01;76.26
14790;BME280;7486;51.010;10.366;2023-11-18T10:37:04;99128.66;;;2.32;74.97
14790;BME280;7486;51.010;10.366;2023-11-18T10:39:51;99114.31;;;2.56;74.48
14790;BME280;7486;51.010;10.366;2023-11-18T10:42:37;99113.22;;;2.69;75.27
14790;BME280;7486;51.010;10.366;2023-11-18T10:45:23;99069.75;;;2.77;73.86
14790;BME280;7486;51.010;10.366;2023-11-18T10:48:12;98959.84;;;2.29;73.24
14790;BME280;7486;51.010;10.366;2023-11-18T10:50:58;99078.56;;;3.24;72.91
14790;BME280;7486;51.010;10.366;2023-11-18T10:53:44;99000.63;;;2.89;71.80
14790;BME280;7486;51.010;10.366;2023-11-18T10:56:32;99059.53;;;3.22;72.13
14790;BME280;7486;51.010;10.366;2023-11-18T10:59:17;98927.66;;;2.38;71.99
14790;BME280;7486;51.010;10.366;2023-11-18T11:02:18;99059.03;;;3.28;72.63
14790;BME280;7486;51.010;10.366;2023-11-18T11:05:03;99092.50;;;3.44;72.25
14790;BME280;7486;51.010;10.366;2023-11-18T11:07:49;99083.56;;;3.37;72.85
14790;BME280;7486;51.010;10.366;2023-11-18T11:10:35;99030.78;;;2.93;73.45
14790;BME280;7486;51.010;10.366;2023-11-18T11:13:22;99008.06;;;2.94;72.56
14790;BME280;7486;51.010;10.366;2023-11-18T11:16:11;99019.91;;;3.07;72.25
14790;BME280;7486;51.010;10.366;2023-11-18T11:18:59;99000.72;;;3.26;71.91
14790;BME280;7486;51.010;10.366;2023-11-18T11:21:55;99074.81;;;3.75;71.25
14790;BME280;7486;51.010;10.366;2023-11-18T11:28:06;99052.88;;;3.76;72.06
14790;BME280;7486;51.010;10.366;2023-11-18T11:33:57;98941.50;;;3.06;71.68
14790;BME280;7486;51.010;10.366;2023-11-18T11:36:47;99039.34;;;3.80;71.72
14790;BME280;7486;51.010;10.366;2023-11-18T11:39:34;98865.94;;;2.93;70.98
14790;BME280;7486;51.010;10.366;2023-11-18T11:42:21;99016.59;;;3.81;71.53
14790;BME280;7486;51.010;10.366;2023-11-18T11:45:08;98938.53;;;3.47;71.89
14790;BME280;7486;51.010;10.366;2023-11-18T11:47:55;98994.44;;;4.02;71.85
14790;BME280;7486;51.010;10.366;2023-11-18T11:57:07;98960.41;;;3.93;71.42
14790;BME280;7486;51.010;10.366;2023-11-18T12:02:38;98879.19;;;3.65;70.60
14790;BME280;7486;51.010;10.366;2023-11-18T12:05:25;98919.13;;;3.95;70.16
14790;BME280;7486;51.010;10.366;2023-11-18T12:08:10;98928.06;;;4.02;69.61
14790;BME280;7486;51.010;10.366;2023-11-18T12:10:56;98886.25;;;3.83;68.50
14790;BME280;7486;51.010;10.366;2023-11-18T12:14:05;98944.50;;;4.22;69.18
14790;BME280;7486;51.010;10.366;2023-11-18T12:17:04;98945.91;;;4.16;68.61
14790;BME280;7486;51.010;10.366;2023-11-18T12:19:50;98911.28;;;3.95;68.41
14790;BME280;7486;51.010;10.366;2023-11-18T12:23:05;98962.06;;;4.21;68.36
14790;BME280;7486;51.010;10.366;2023-11-18T12:25:57;98736.78;;;2.85;68.96
14790;BME280;7486;51.010;10.366;2023-11-18T12:28:50;98925.09;;;4.14;69.24
14790;BME280;7486;51.010;10.366;2023-11-18T12:31:39;98969.19;;;4.46;69.94
14790;BME280;7486;51.010;10.366;2023-11-18T12:34:53;98964.91;;;4.63;68.63
14790;BME280;7486;51.010;10.366;2023-11-18T12:37:56;98962.97;;;4.65;68.70
14790;BME280;7486;51.010;10.366;2023-11-18T12:40:55;98962.28;;;4.63;68.10
14790;BME280;7486;51.010;10.366;2023-11-18T12:44:25;98968.00;;;4.41;69.23
14790;BME280;7486;51.010;10.366;2023-11-18T12:47:16;98861.16;;;3.80;69.53
14790;BME280;7486;51.010;10.366;2023-11-18T12:50:08;98869.63;;;3.92;69.43
14790;BME280;7486;51.010;10.366;2023-11-18T12:52:55;98953.31;;;4.48;68.75
14790;BME280;7486;51.010;10.366;2023-11-18T12:55:41;98858.84;;;3.50;70.01
14790;BME280;7486;51.010;10.366;2023-11-18T12:58:27;98903.47;;;3.85;69.74
14790;BME280;7486;51.010;10.366;2023-11-18T13:01:13;98897.00;;;4.07;68.95
14790;BME280;7486;51.010;10.366;2023-11-18T13:03:59;98937.88;;;4.45;69.63
14790;BME280;7486;51.010;10.366;2023-11-18T13:06:46;98889.66;;;4.10;68.86
14790;BME280;7486;51.010;10.366;2023-11-18T13:09:32;98914.84;;;4.39;68.86
14790;BME280;7486;51.010;10.366;2023-11-18T13:12:17;98887.47;;;4.06;68.97
14790;BME280;7486;51.010;10.366;2023-11-18T13:15:04;98884.09;;;3.96;70.04
14790;BME280;7486;51.010;10.366;2023-11-18T13:20:56;98903.59;;;4.29;70.74
14790;BME280;7486;51.010;10.366;2023-11-18T13:23:46;98831.13;;;3.75;71.20
14790;BME280;7486;51.010;10.366;2023-11-18T13:26:31;98861.75;;;3.74;71.82
14790;BME280;7486;51.010;10.366;2023-11-18T13:29:17;98861.69;;;3.66;72.48
14790;BME280;7486;51.010;10.366;2023-11-18T13:32:03;98801.97;;;3.42;71.61
14790;BME280;7486;51.010;10.366;2023-11-18T13:34:49;98718.97;;;2.98;70.52
14790;BME280;7486;51.010;10.366;2023-11-18T13:37:35;98806.19;;;3.71;70.82
14790;BME280;7486;51.010;10.366;2023-11-18T13:40:21;98864.94;;;4.13;70.94
14790;BME280;7486;51.010;10.366;2023-11-18T13:43:06;98879.47;;;4.25;70.47
14790;BME280;7486;51.010;10.366;2023-11-18T13:45:52;98796.16;;;3.84;70.95
14790;BME280;7486;51.010;10.366;2023-11-18T13:48:38;98854.06;;;4.26;70.50
14790;BME280;7486;51.010;10.366;2023-11-18T13:51:23;98856.25;;;4.30;70.47
14790;BME280;7486;51.010;10.366;2023-11-18T13:54:09;98867.94;;;4.36;70.08
14790;BME280;7486;51.010;10.366;2023-11-18T13:56:56;98792.38;;;3.96;69.93
14790;BME280;7486;51.010;10.366;2023-11-18T13:59:44;98733.75;;;3.61;69.05
14790;BME280;7486;51.010;10.366;2023-11-18T14:02:30;98891.00;;;4.50;69.29
14790;BME280;7486;51.010;10.366;2023-11-18T14:05:16;98881.47;;;4.49;69.89
14790;BME280;7486;51.010;10.366;2023-11-18T14:08:03;98765.63;;;3.92;69.92
14790;BME280;7486;51.010;10.366;2023-11-18T14:10:49;98832.78;;;4.46;69.82
14790;BME280;7486;51.010;10.366;2023-11-18T14:13:47;98792.56;;;4.38;69.68
14790;BME280;7486;51.010;10.366;2023-11-18T14:16:33;98634.22;;;3.44;69.11
14790;BME280;7486;51.010;10.366;2023-11-18T14:19:19;98789.72;;;4.31;69.57
14790;BME280;7486;51.010;10.366;2023-11-18T14:22:05;98731.78;;;3.99;69.89
14790;BME280;7486;51.010;10.366;2023-11-18T14:24:50;98765.94;;;4.07;70.49
14790;BME280;7486;51.010;10.366;2023-11-18T14:27:36;98704.41;;;3.58;71.04
14790;BME280;7486;51.010;10.366;2023-11-18T14:30:22;98710.00;;;3.63;70.47
14790;BME280;7486;51.010;10.366;2023-11-18T14:33:07;98728.13;;;3.56;71.14
14790;BME280;7486;51.010;10.366;2023-11-18T14:35:53;98769.75;;;3.77;71.38
14790;BME280;7486;51.010;10.366;2023-11-18T14:38:39;98735.44;;;3.53;71.19
14790;BME280;7486;51.010;10.366;2023-11-18T14:41:25;98717.44;;;2.95;72.09
14790;BME280;7486;51.010;10.366;2023-11-18T14:44:14;98778.88;;;2.91;73.83
14790;BME280;7486;51.010;10.366;2023-11-18T14:46:59;98655.44;;;2.14;74.50
14790;BME280;7486;51.010;10.366;2023-11-18T14:49:45;98772.06;;;2.81;74.46
14790;BME280;7486;51.010;10.366;2023-11-18T14:52:30;98803.75;;;3.05;75.33
14790;BME280;7486;51.010;10.366;2023-11-18T14:55:18;98806.59;;;3.21;75.14
14790;BME280;7486;51.010;10.366;2023-11-18T14:58:04;98684.34;;;2.49;74.35
14790;BME280;7486;51.010;10.366;2023-11-18T15:00:50;98804.34;;;3.26;74.42
14790;BME280;7486;51.010;10.366;2023-11-18T15:03:35;98808.47;;;3.38;74.45
14790;BME280;7486;51.010;10.366;2023-11-18T15:06:25;98609.34;;;2.13;73.80
14790;BME280;7486;51.010;10.366;2023-11-18T15:09:10;98805.22;;;3.17;73.76
14790;BME280;7486;51.010;10.366;2023-11-18T15:11:56;98683.16;;;2.34;74.69
14790;BME280;7486;51.010;10.366;2023-11-18T15:14:42;98670.50;;;2.30;75.08
14790;BME280;7486;51.010;10.366;2023-11-18T15:17:28;98811.41;;;2.89;75.81
14790;BME280;7486;51.010;10.366;2023-11-18T15:20:30;98797.47;;;2.98;75.75
14790;BME280;7486;51.010;10.366;2023-11-18T15:23:16;98630.72;;;2.08;75.20
14790;BME280;7486;51.010;10.366;2023-11-18T15:26:03;98698.97;;;2.42;76.05
14790;BME280;7486;51.010;10.366;2023-11-18T15:28:51;98767.06;;;2.87;75.89
14790;BME280;7486;51.010;10.366;2023-11-18T15:31:36;98734.41;;;2.91;75.42
14790;BME280;7486;51.010;10.366;2023-11-18T15:34:22;98789.31;;;3.38;75.35
14790;BME280;7486;51.010;10.366;2023-11-18T15:37:10;98690.09;;;2.90;74.88
14790;BME280;7486;51.010;10.366;2023-11-18T15:39:56;98758.03;;;3.36;74.98
14790;BME280;7486;51.010;10.366;2023-11-18T15:42:43;98656.66;;;2.84;74.54
14790;BME280;7486;51.010;10.366;2023-11-18T15:45:29;98601.75;;;2.56;74.99
14790;BME280;7486;51.010;10.366;2023-11-18T15:48:14;98766.50;;;3.48;74.90
14790;BME280;7486;51.010;10.366;2023-11-18T15:51:01;98783.88;;;3.49;76.04